sensor_id;sensor_type;location;lat;lon;timestamp;pressure;altitude;pressure_sealevel;temperature;humidity
21547;BME280;41275;51.912;4.388;2023-03-24T00:03:18;99622.09;;;18.94;53.42
21547;BME280;41275;51.912;4.388;2023-03-24T00:08:40;99624.66;;;18.99;53.32
21547;BME280;41275;51.912;4.388;2023-03-24T00:14:03;99621.69;;;19.09;53.52
21547;BME280;41275;51.912;4.388;2023-03-24T00:19:25;99603.75;;;19.19;53.32
21547;BME280;41275;51.912;4.388;2023-03-24T00:24:46;99601.06;;;19.27;53.09
21547;BME280;41275;51.912;4.388;2023-03-24T00:30:08;99589.88;;;19.34;52.67
21547;BME280;41275;51.912;4.388;2023-03-24T00:35:31;99599.16;;;19.36;52.50
21547;BME280;41275;51.912;4.388;2023-03-24T00:40:52;99588.59;;;19.40;52.18
21547;BME280;41275;51.912;4.388;2023-03-24T00:46:15;99566.19;;;19.45;52.12
21547;BME280;41275;51.912;4.388;2023-03-24T00:51:47;99567.13;;;19.40;51.98
21547;BME280;41275;51.912;4.388;2023-03-24T00:57:08;99560.19;;;19.39;52.01
21547;BME280;41275;51.912;4.388;2023-03-24T01:02:32;99563.84;;;19.34;52.01
21547;BME280;41275;51.912;4.388;2023-03-24T01:07:58;99547.56;;;19.40;52.36
21547;BME280;41275;51.912;4.388;2023-03-24T01:13:25;99553.56;;;19.45;52.29
21547;BME280;41275;51.912;4.388;2023-03-24T01:18:47;99563.50;;;19.36;52.14
21547;BME280;41275;51.912;4.388;2023-03-24T01:24:09;99561.00;;;19.22;52.34
21547;BME280;41275;51.912;4.388;2023-03-24T01:29:30;99587.66;;;19.27;52.77
21547;BME280;41275;51.912;4.388;2023-03-24T01:34:51;99623.63;;;19.26;52.68
21547;BME280;41275;51.912;4.388;2023-03-24T01:40:20;99630.06;;;19.17;52.33
21547;BME280;41275;51.912;4.388;2023-03-24T01:45:50;99642.06;;;19.10;52.16
21547;BME280;41275;51.912;4.388;2023-03-24T01:51:30;99644.84;;;18.97;51.50
21547;BME280;41275;51.912;4.388;2023-03-24T01:57:19;99671.94;;;18.86;50.95
21547;BME280;41275;51.912;4.388;2023-03-24T02:02:54;99668.19;;;18.65;50.61
21547;BME280;41275;51.912;4.388;2023-03-24T02:08:33;99687.91;;;18.47;50.00
21547;BME280;41275;51.912;4.388;2023-03-24T02:13:56;99708.69;;;18.19;49.45
21547;BME280;41275;51.912;4.388;2023-03-24T02:42:56;99742.13;;;17.43;50.00
21547;BME280;41275;51.912;4.388;2023-03-24T02:59:40;99780.34;;;17.03;50.49
21547;BME280;41275;51.912;4.388;2023-03-24T03:05:07;99772.94;;;16.81;51.11
21547;BME280;41275;51.912;4.388;2023-03-24T03:10:39;99775.13;;;16.79;51.48
21547;BME280;41275;51.912;4.388;2023-03-24T03:16:09;99792.44;;;16.81;51.35
21547;BME280;41275;51.912;4.388;2023-03-24T03:21:37;99798.09;;;16.80;51.75
21547;BME280;41275;51.912;4.388;2023-03-24T03:27:03;99807.09;;;16.84;51.82
21547;BME280;41275;51.912;4.388;2023-03-24T03:32:29;99810.56;;;16.84;51.62
21547;BME280;41275;51.912;4.388;2023-03-24T03:38:03;99814.53;;;16.87;51.75
21547;BME280;41275;51.912;4.388;2023-03-24T03:43:29;99814.53;;;16.87;51.82
21547;BME280;41275;51.912;4.388;2023-03-24T03:48:52;99824.94;;;16.88;52.12
21547;BME280;41275;51.912;4.388;2023-03-24T03:54:15;99824.91;;;16.75;51.26
21547;BME280;41275;51.912;4.388;2023-03-24T03:59:37;99818.75;;;16.55;51.54
21547;BME280;41275;51.912;4.388;2023-03-24T04:11:16;99831.88;;;16.33;51.49
21547;BME280;41275;51.912;4.388;2023-03-24T04:22:26;99848.56;;;16.25;51.79
21547;BME280;41275;51.912;4.388;2023-03-24T04:28:00;99851.94;;;16.30;51.69
21547;BME280;41275;51.912;4.388;2023-03-24T04:33:32;99852.53;;;16.27;51.72
21547;BME280;41275;51.912;4.388;2023-03-24T04:38:59;99848.56;;;16.25;52.04
21547;BME280;41275;51.912;4.388;2023-03-24T04:44:22;99873.59;;;16.29;52.24
21547;BME280;41275;51.912;4.388;2023-03-24T04:49:44;99877.28;;;16.33;52.85
21547;BME280;41275;51.912;4.388;2023-03-24T04:55:36;99891.63;;;16.37;52.85
21547;BME280;41275;51.912;4.388;2023-03-24T05:01:01;99882.28;;;16.39;52.96
21547;BME280;41275;51.912;4.388;2023-03-24T05:06:23;99896.13;;;16.41;52.65
21547;BME280;41275;51.912;4.388;2023-03-24T05:11:45;99893.88;;;16.49;52.08
21547;BME280;41275;51.912;4.388;2023-03-24T05:17:06;99908.47;;;16.56;51.80
21547;BME280;41275;51.912;4.388;2023-03-24T05:22:27;99910.50;;;16.64;51.30
21547;BME280;41275;51.912;4.388;2023-03-24T05:27:59;99919.47;;;16.74;51.07
21547;BME280;41275;51.912;4.388;2023-03-24T06:04:32;99936.72;;;16.81;49.93
21547;BME280;41275;51.912;4.388;2023-03-24T06:09:53;99955.38;;;16.86;50.32
21547;BME280;41275;51.912;4.388;2023-03-24T06:15:17;99967.31;;;16.94;49.97
21547;BME280;41275;51.912;4.388;2023-03-24T06:20:39;99971.13;;;16.88;49.83
21547;BME280;41275;51.912;4.388;2023-03-24T06:26:07;99971.91;;;16.88;50.03
21547;BME280;41275;51.912;4.388;2023-03-24T06:31:29;99989.69;;;16.98;50.05
21547;BME280;41275;51.912;4.388;2023-03-24T06:36:51;100007.09;;;16.96;49.95
21547;BME280;41275;51.912;4.388;2023-03-24T06:42:12;100001.19;;;16.99;49.91
21547;BME280;41275;51.912;4.388;2023-03-24T06:47:34;99996.41;;;16.96;50.07
21547;BME280;41275;51.912;4.388;2023-03-24T06:52:58;100018.72;;;17.05;49.72
21547;BME280;41275;51.912;4.388;2023-03-24T06:58:20;100015.25;;;17.04;50.14
21547;BME280;41275;51.912;4.388;2023-03-24T07:03:41;100028.97;;;17.16;50.10
21547;BME280;41275;51.912;4.388;2023-03-24T07:09:23;100035.28;;;17.26;49.63
21547;BME280;41275;51.912;4.388;2023-03-24T07:14:44;100033.84;;;17.33;49.54
21547;BME280;41275;51.912;4.388;2023-03-24T07:20:06;100048.34;;;17.46;49.15
21547;BME280;41275;51.912;4.388;2023-03-24T07:25:28;100062.28;;;17.62;49.05
21547;BME280;41275;51.912;4.388;2023-03-24T07:30:49;100061.72;;;17.65;48.40
21547;BME280;41275;51.912;4.388;2023-03-24T07:36:13;100064.56;;;17.87;48.33
21547;BME280;41275;51.912;4.388;2023-03-24T07:41:35;100072.34;;;18.03;48.04
21547;BME280;41275;51.912;4.388;2023-03-24T07:46:56;100080.09;;;18.04;47.71
21547;BME280;41275;51.912;4.388;2023-03-24T07:52:18;100069.75;;;17.98;48.02
21547;BME280;41275;51.912;4.388;2023-03-24T07:57:41;100074.66;;;18.09;47.76
21547;BME280;41275;51.912;4.388;2023-03-24T08:03:02;100072.66;;;18.15;47.69
21547;BME280;41275;51.912;4.388;2023-03-24T08:08:24;100087.41;;;18.31;47.24
21547;BME280;41275;51.912;4.388;2023-03-24T08:13:45;100093.25;;;18.47;47.01
21547;BME280;41275;51.912;4.388;2023-03-24T08:19:06;100107.72;;;18.46;46.50
21547;BME280;41275;51.912;4.388;2023-03-24T08:24:27;100100.97;;;18.35;46.45
21547;BME280;41275;51.912;4.388;2023-03-24T08:29:49;100116.91;;;18.59;46.47
21547;BME280;41275;51.912;4.388;2023-03-24T08:35:12;100112.09;;;18.42;46.43
21547;BME280;41275;51.912;4.388;2023-03-24T08:40:36;100116.19;;;18.67;46.00
21547;BME280;41275;51.912;4.388;2023-03-24T08:45:58;100116.53;;;18.79;45.39
21547;BME280;41275;51.912;4.388;2023-03-24T08:51:20;100123.88;;;18.87;44.53
21547;BME280;41275;51.912;4.388;2023-03-24T08:56:41;100142.06;;;18.91;44.59
21547;BME280;41275;51.912;4.388;2023-03-24T09:02:03;100140.94;;;19.05;44.07
21547;BME280;41275;51.912;4.388;2023-03-24T09:07:24;100150.06;;;19.18;43.60
21547;BME280;41275;51.912;4.388;2023-03-24T09:12:45;100155.09;;;19.33;43.57
21547;BME280;41275;51.912;4.388;2023-03-24T09:18:06;100165.34;;;19.18;43.25
21547;BME280;41275;51.912;4.388;2023-03-24T09:23:28;100171.09;;;19.25;43.30
21547;BME280;41275;51.912;4.388;2023-03-24T09:28:51;100169.00;;;19.63;42.87
21547;BME280;41275;51.912;4.388;2023-03-24T09:34:12;100180.25;;;19.37;42.83
21547;BME280;41275;51.912;4.388;2023-03-24T09:39:36;100185.47;;;19.56;42.60
21547;BME280;41275;51.912;4.388;2023-03-24T09:44:59;100177.84;;;19.64;42.56
21547;BME280;41275;51.912;4.388;2023-03-24T09:50:34;100179.41;;;19.65;42.15
21547;BME280;41275;51.912;4.388;2023-03-24T09:56:03;100157.91;;;19.78;41.85
21547;BME280;41275;51.912;4.388;2023-03-24T10:01:29;100178.41;;;19.60;41.79
21547;BME280;41275;51.912;4.388;2023-03-24T10:07:07;100185.75;;;19.82;41.85
21547;BME280;41275;51.912;4.388;2023-03-24T10:12:34;100190.84;;;19.56;42.61
21547;BME280;41275;51.912;4.388;2023-03-24T10:18:29;100182.09;;;19.65;42.42
21547;BME280;41275;51.912;4.388;2023-03-24T10:24:06;100191.66;;;19.29;42.55
21547;BME280;41275;51.912;4.388;2023-03-24T10:29:33;100189.13;;;19.10;42.74
21547;BME280;41275;51.912;4.388;2023-03-24T10:34:59;100182.53;;;19.30;42.72
21547;BME280;41275;51.912;4.388;2023-03-24T10:40:30;100199.50;;;19.53;42.95
21547;BME280;41275;51.912;4.388;2023-03-24T10:45:55;100190.53;;;19.72;42.76
21547;BME280;41275;51.912;4.388;2023-03-24T10:51:20;100202.63;;;19.83;42.17
21547;BME280;41275;51.912;4.388;2023-03-24T10:56:42;100199.28;;;20.00;41.25
21547;BME280;41275;51.912;4.388;2023-03-24T11:07:34;100183.00;;;20.19;40.62
21547;BME280;41275;51.912;4.388;2023-03-24T11:12:59;100200.66;;;20.33;39.74
21547;BME280;41275;51.912;4.388;2023-03-24T11:18:22;100207.78;;;20.38;39.51
21547;BME280;41275;51.912;4.388;2023-03-24T11:23:44;100203.19;;;20.39;39.93
21547;BME280;41275;51.912;4.388;2023-03-24T11:29:11;100194.78;;;20.31;39.13
21547;BME280;41275;51.912;4.388;2023-03-24T11:34:36;100196.94;;;19.98;39.31
21547;BME280;41275;51.912;4.388;2023-03-24T11:45:34;100215.38;;;20.36;39.94
21547;BME280;41275;51.912;4.388;2023-03-24T11:51:00;100209.63;;;20.06;40.14
21547;BME280;41275;51.912;4.388;2023-03-24T11:56:55;100216.59;;;20.30;40.35
21547;BME280;41275;51.912;4.388;2023-03-24T12:02:48;100208.81;;;20.73;40.15
21547;BME280;41275;51.912;4.388;2023-03-24T12:08:25;100179.19;;;21.04;39.45
21547;BME280;41275;51.912;4.388;2023-03-24T12:13:49;100201.84;;;20.72;39.21
21547;BME280;41275;51.912;4.388;2023-03-24T12:36:57;100189.47;;;22.20;36.91
21547;BME280;41275;51.912;4.388;2023-03-24T12:42:22;100184.53;;;22.31;36.10
21547;BME280;41275;51.912;4.388;2023-03-24T12:54:01;100210.75;;;23.24;35.25
21547;BME280;41275;51.912;4.388;2023-03-24T12:59:29;100196.59;;;21.99;35.75
21547;BME280;41275;51.912;4.388;2023-03-24T13:04:58;100179.56;;;21.20;37.18
21547;BME280;41275;51.912;4.388;2023-03-24T13:10:26;100173.00;;;21.96;36.47
21547;BME280;41275;51.912;4.388;2023-03-24T13:15:51;100167.41;;;22.44;34.60
21547;BME280;41275;51.912;4.388;2023-03-24T13:21:17;100169.44;;;22.56;34.78
21547;BME280;41275;51.912;4.388;2023-03-24T13:32:14;100148.94;;;22.64;35.55
21547;BME280;41275;51.912;4.388;2023-03-24T13:37:41;100138.66;;;22.57;34.81
21547;BME280;41275;51.912;4.388;2023-03-24T13:43:12;100156.69;;;22.65;35.55
21547;BME280;41275;51.912;4.388;2023-03-24T13:48:40;100164.81;;;23.03;34.95
21547;BME280;41275;51.912;4.388;2023-03-24T13:54:10;100151.56;;;23.61;33.11
21547;BME280;41275;51.912;4.388;2023-03-24T14:22:29;100143.66;;;22.76;35.15
21547;BME280;41275;51.912;4.388;2023-03-24T14:28:19;100133.66;;;22.76;34.94
21547;BME280;41275;51.912;4.388;2023-03-24T14:39:46;100124.69;;;23.23;34.46
21547;BME280;41275;51.912;4.388;2023-03-24T14:45:40;100140.19;;;23.76;33.25
21547;BME280;41275;51.912;4.388;2023-03-24T14:51:28;100127.63;;;23.93;33.63
21547;BME280;41275;51.912;4.388;2023-03-24T14:56:56;100133.59;;;23.86;32.52
21547;BME280;41275;51.912;4.388;2023-03-24T15:08:02;100127.03;;;24.20;32.67
21547;BME280;41275;51.912;4.388;2023-03-24T15:13:31;100127.88;;;24.33;31.72
21547;BME280;41275;51.912;4.388;2023-03-24T15:18:55;100130.59;;;22.48;34.02
21547;BME280;41275;51.912;4.388;2023-03-24T15:29:42;100110.22;;;21.08;36.79
21547;BME280;41275;51.912;4.388;2023-03-24T15:35:05;100106.31;;;20.75;37.83
21547;BME280;41275;51.912;4.388;2023-03-24T15:45:52;100116.84;;;20.31;38.47
21547;BME280;41275;51.912;4.388;2023-03-24T15:51:14;100125.63;;;19.92;39.13
21547;BME280;41275;51.912;4.388;2023-03-24T15:56:35;100103.63;;;19.81;39.50
21547;BME280;41275;51.912;4.388;2023-03-24T16:01:57;100084.50;;;19.83;39.75
21547;BME280;41275;51.912;4.388;2023-03-24T16:07:29;100093.84;;;19.63;40.09
21547;BME280;41275;51.912;4.388;2023-03-24T16:12:52;100092.19;;;19.76;39.86
21547;BME280;41275;51.912;4.388;2023-03-24T16:18:16;100098.06;;;19.78;39.76
21547;BME280;41275;51.912;4.388;2023-03-24T16:23:39;100095.94;;;19.89;39.44
21547;BME280;41275;51.912;4.388;2023-03-24T16:29:13;100062.72;;;19.84;39.34
21547;BME280;41275;51.912;4.388;2023-03-24T16:34:36;100087.19;;;19.83;39.15
21547;BME280;41275;51.912;4.388;2023-03-24T16:39:57;100093.28;;;19.97;39.15
21547;BME280;41275;51.912;4.388;2023-03-24T16:45:19;100097.75;;;20.02;39.29
21547;BME280;41275;51.912;4.388;2023-03-24T16:50:43;100077.25;;;19.83;39.34
21547;BME280;41275;51.912;4.388;2023-03-24T16:56:05;100089.63;;;19.57;39.55
21547;BME280;41275;51.912;4.388;2023-03-24T17:01:38;100107.13;;;19.32;40.04
21547;BME280;41275;51.912;4.388;2023-03-24T17:07:00;100092.50;;;19.38;39.75
21547;BME280;41275;51.912;4.388;2023-03-24T17:12:21;100087.41;;;19.50;39.67
21547;BME280;41275;51.912;4.388;2023-03-24T17:17:42;100081.00;;;19.60;39.84
21547;BME280;41275;51.912;4.388;2023-03-24T17:23:04;100082.22;;;19.54;40.19
21547;BME280;41275;51.912;4.388;2023-03-24T17:28:26;100082.44;;;19.44;40.27
21547;BME280;41275;51.912;4.388;2023-03-24T17:33:47;100080.22;;;19.23;40.66
21547;BME280;41275;51.912;4.388;2023-03-24T17:39:14;100080.75;;;18.98;41.03
21547;BME280;41275;51.912;4.388;2023-03-24T17:44:38;100098.84;;;18.78;41.12
21547;BME280;41275;51.912;4.388;2023-03-24T17:50:00;100081.94;;;18.64;40.96
21547;BME280;41275;51.912;4.388;2023-03-24T17:55:21;100081.94;;;18.50;41.20
21547;BME280;41275;51.912;4.388;2023-03-24T18:00:43;100101.38;;;18.42;40.86
21547;BME280;41275;51.912;4.388;2023-03-24T18:06:08;100091.06;;;18.35;40.79
21547;BME280;41275;51.912;4.388;2023-03-24T18:11:30;100097.38;;;18.26;40.67
21547;BME280;41275;51.912;4.388;2023-03-24T18:16:51;100079.41;;;18.12;40.61
21547;BME280;41275;51.912;4.388;2023-03-24T18:22:12;100090.00;;;18.04;41.00
21547;BME280;41275;51.912;4.388;2023-03-24T18:27:34;100066.09;;;17.94;41.25
21547;BME280;41275;51.912;4.388;2023-03-24T18:32:55;100088.66;;;17.87;41.98
21547;BME280;41275;51.912;4.388;2023-03-24T18:38:21;100078.34;;;17.81;41.95
21547;BME280;41275;51.912;4.388;2023-03-24T18:43:42;100091.25;;;17.74;42.47
21547;BME280;41275;51.912;4.388;2023-03-24T18:49:12;100100.97;;;17.70;42.99
21547;BME280;41275;51.912;4.388;2023-03-24T18:54:34;100108.84;;;17.61;43.05
21547;BME280;41275;51.912;4.388;2023-03-24T18:59:55;100105.38;;;17.60;43.13
21547;BME280;41275;51.912;4.388;2023-03-24T19:05:17;100081.09;;;17.57;42.90
21547;BME280;41275;51.912;4.388;2023-03-24T19:10:39;100098.16;;;17.61;42.91
21547;BME280;41275;51.912;4.388;2023-03-24T19:16:01;100071.09;;;17.62;42.31
21547;BME280;41275;51.912;4.388;2023-03-24T19:21:23;100082.31;;;17.64;41.97
21547;BME280;41275;51.912;4.388;2023-03-24T19:26:44;100072.41;;;17.65;41.99
21547;BME280;41275;51.912;4.388;2023-03-24T19:32:05;100073.41;;;17.69;41.54
21547;BME280;41275;51.912;4.388;2023-03-24T19:37:27;100079.34;;;17.66;42.07
21547;BME280;41275;51.912;4.388;2023-03-24T19:42:49;100070.44;;;17.71;42.19
21547;BME280;41275;51.912;4.388;2023-03-24T19:48:10;100073.00;;;17.81;42.43
21547;BME280;41275;51.912;4.388;2023-03-24T19:53:32;100075.06;;;17.84;42.13
21547;BME280;41275;51.912;4.388;2023-03-24T19:58:59;100061.69;;;17.84;41.92
21547;BME280;41275;51.912;4.388;2023-03-24T20:04:20;100072.19;;;17.80;42.13
21547;BME280;41275;51.912;4.388;2023-03-24T20:09:42;100063.72;;;17.73;42.08
21547;BME280;41275;51.912;4.388;2023-03-24T20:15:03;100057.72;;;17.62;42.33
21547;BME280;41275;51.912;4.388;2023-03-24T20:20:24;100060.47;;;17.57;42.37
21547;BME280;41275;51.912;4.388;2023-03-24T20:25:45;100057.28;;;17.55;42.43
21547;BME280;41275;51.912;4.388;2023-03-24T20:31:07;100062.06;;;17.58;42.67
21547;BME280;41275;51.912;4.388;2023-03-24T20:36:28;100058.88;;;17.56;42.51
21547;BME280;41275;51.912;4.388;2023-03-24T20:41:49;100063.88;;;17.44;42.44
21547;BME280;41275;51.912;4.388;2023-03-24T20:47:10;100058.75;;;17.29;42.63
21547;BME280;41275;51.912;4.388;2023-03-24T20:52:32;100059.41;;;17.21;43.15
21547;BME280;41275;51.912;4.388;2023-03-24T20:57:54;100051.75;;;17.14;43.22
21547;BME280;41275;51.912;4.388;2023-03-24T21:03:16;100056.94;;;17.05;43.97
21547;BME280;41275;51.912;4.388;2023-03-24T21:08:38;100056.75;;;17.02;44.33
21547;BME280;41275;51.912;4.388;2023-03-24T21:14:01;100063.13;;;17.01;44.36
21547;BME280;41275;51.912;4.388;2023-03-24T21:19:23;100059.03;;;17.08;44.31
21547;BME280;41275;51.912;4.388;2023-03-24T21:24:44;100068.84;;;17.13;44.21
21547;BME280;41275;51.912;4.388;2023-03-24T21:30:06;100070.63;;;17.23;44.07
21547;BME280;41275;51.912;4.388;2023-03-24T21:35:28;100049.56;;;17.35;43.29
21547;BME280;41275;51.912;4.388;2023-03-24T21:40:59;100052.56;;;17.33;43.29
21547;BME280;41275;51.912;4.388;2023-03-24T21:46:21;100061.50;;;17.42;43.45
21547;BME280;41275;51.912;4.388;2023-03-24T21:51:42;100056.47;;;17.41;43.23
21547;BME280;41275;51.912;4.388;2023-03-24T21:57:04;100055.00;;;17.30;43.53
21547;BME280;41275;51.912;4.388;2023-03-24T22:02:25;100057.03;;;17.19;43.33
21547;BME280;41275;51.912;4.388;2023-03-24T22:07:48;100063.97;;;17.20;43.25
21547;BME280;41275;51.912;4.388;2023-03-24T22:13:09;100072.19;;;17.24;43.50
21547;BME280;41275;51.912;4.388;2023-03-24T22:18:35;100078.13;;;17.21;43.72
21547;BME280;41275;51.912;4.388;2023-03-24T22:23:56;100067.00;;;17.13;43.17
21547;BME280;41275;51.912;4.388;2023-03-24T22:29:17;100069.47;;;17.10;43.67
21547;BME280;41275;51.912;4.388;2023-03-24T22:34:38;100069.81;;;17.03;43.57
21547;BME280;41275;51.912;4.388;2023-03-24T22:40:00;100065.03;;;17.00;43.57
21547;BME280;41275;51.912;4.388;2023-03-24T22:45:24;100068.78;;;16.99;44.04
21547;BME280;41275;51.912;4.388;2023-03-24T22:50:45;100065.09;;;16.95;43.77
21547;BME280;41275;51.912;4.388;2023-03-24T22:56:07;100062.19;;;16.91;43.88
21547;BME280;41275;51.912;4.388;2023-03-24T23:01:29;100067.03;;;16.89;44.46
21547;BME280;41275;51.912;4.388;2023-03-24T23:06:50;100067.09;;;16.84;44.47
21547;BME280;41275;51.912;4.388;2023-03-24T23:12:12;100063.63;;;16.84;44.43
21547;BME280;41275;51.912;4.388;2023-03-24T23:17:36;100075.34;;;16.88;44.01
21547;BME280;41275;51.912;4.388;2023-03-24T23:22:57;100066.81;;;16.86;44.39
21547;BME280;41275;51.912;4.388;2023-03-24T23:28:18;100078.56;;;16.85;44.19
21547;BME280;41275;51.912;4.388;2023-03-24T23:33:43;100072.97;;;16.86;44.27
21547;BME280;41275;51.912;4.388;2023-03-24T23:39:04;100078.22;;;16.91;44.06
21547;BME280;41275;51.912;4.388;2023-03-24T23:44:26;100076.66;;;16.90;44.21
21547;BME280;41275;51.912;4.388;2023-03-24T23:49:47;100091.59;;;16.91;44.60
21547;BME280;41275;51.912;4.388;2023-03-24T23:55:10;100085.97;;;16.93;44.41
